Terminal Aerodrome Forecast
Issued by NWS Mobile, AL

Home | Current Version | Previous Version | Text Only | Print | Product List | Glossary On
Versions: 1 2 3 4 5 6 7 8 9 10 11 12 13 14 15 16 17 18 19 20 21 22 23 24 25 26
000
FTUS44 KMOB 031127
TAFPNS
TAF
KPNS 031127Z 0312/0412 01004KT P6SM FEW140
     FM031800 18012KT P6SM FEW140
     FM040000 12004KT P6SM SKC
     FM041100 10003KT 4SM BR SCT006=

USA.gov is the U.S. government's official web portal to all federal, state and local government web resources and services.